sensor_id;sensor_type;location;lat;lon;timestamp;pressure;altitude;pressure_sealevel;temperature;humidity
66176;BME280;52977;44.816;20.538;2024-03-29T00:01:57;99148.09;;;16.52;53.38
66176;BME280;52977;44.816;20.538;2024-03-29T00:04:23;99144.13;;;16.50;53.26
66176;BME280;52977;44.816;20.538;2024-03-29T00:06:50;99159.81;;;16.46;53.52
66176;BME280;52977;44.816;20.538;2024-03-29T00:09:16;99166.94;;;16.50;53.60
66176;BME280;52977;44.816;20.538;2024-03-29T00:11:43;99165.78;;;16.51;53.28
66176;BME280;52977;44.816;20.538;2024-03-29T00:14:10;99163.03;;;16.51;53.40
66176;BME280;52977;44.816;20.538;2024-03-29T00:16:36;99167.00;;;16.54;53.48
66176;BME280;52977;44.816;20.538;2024-03-29T00:19:03;99177.59;;;16.52;53.81
66176;BME280;52977;44.816;20.538;2024-03-29T00:21:30;99173.22;;;16.47;53.70
66176;BME280;52977;44.816;20.538;2024-03-29T00:23:56;99179.84;;;16.43;53.82
66176;BME280;52977;44.816;20.538;2024-03-29T00:26:23;99184.91;;;16.40;54.27
66176;BME280;52977;44.816;20.538;2024-03-29T00:28:50;99175.13;;;16.43;54.08
66176;BME280;52977;44.816;20.538;2024-03-29T00:31:16;99185.00;;;16.48;54.20
66176;BME280;52977;44.816;20.538;2024-03-29T00:33:43;99184.16;;;16.44;54.16
66176;BME280;52977;44.816;20.538;2024-03-29T00:36:09;99184.63;;;16.49;54.08
66176;BME280;52977;44.816;20.538;2024-03-29T00:38:36;99190.88;;;16.46;54.14
66176;BME280;52977;44.816;20.538;2024-03-29T00:41:03;99195.19;;;16.44;54.17
66176;BME280;52977;44.816;20.538;2024-03-29T00:43:29;99188.50;;;16.41;54.26
66176;BME280;52977;44.816;20.538;2024-03-29T00:45:56;99190.03;;;16.38;54.55
66176;BME280;52977;44.816;20.538;2024-03-29T00:48:22;99193.56;;;16.39;54.58
66176;BME280;52977;44.816;20.538;2024-03-29T00:50:50;99180.94;;;16.38;54.63
66176;BME280;52977;44.816;20.538;2024-03-29T00:53:16;99185.31;;;16.39;54.51
66176;BME280;52977;44.816;20.538;2024-03-29T00:55:43;99183.38;;;16.43;54.69
66176;BME280;52977;44.816;20.538;2024-03-29T00:58:10;99192.88;;;16.46;54.60
66176;BME280;52977;44.816;20.538;2024-03-29T01:00:36;99190.88;;;16.43;54.70
66176;BME280;52977;44.816;20.538;2024-03-29T01:03:03;99194.72;;;16.38;55.06
66176;BME280;52977;44.816;20.538;2024-03-29T01:05:29;99199.84;;;16.39;54.74
66176;BME280;52977;44.816;20.538;2024-03-29T01:07:56;99201.03;;;16.38;55.00
66176;BME280;52977;44.816;20.538;2024-03-29T01:10:23;99201.44;;;16.40;55.00
66176;BME280;52977;44.816;20.538;2024-03-29T01:12:50;99201.06;;;16.42;54.82
66176;BME280;52977;44.816;20.538;2024-03-29T01:15:16;99208.97;;;16.44;54.73
66176;BME280;52977;44.816;20.538;2024-03-29T01:17:43;99205.03;;;16.45;54.89
66176;BME280;52977;44.816;20.538;2024-03-29T01:20:09;99208.22;;;16.47;54.74
66176;BME280;52977;44.816;20.538;2024-03-29T01:22:37;99206.56;;;16.42;54.87
66176;BME280;52977;44.816;20.538;2024-03-29T01:25:04;99210.88;;;16.39;55.02
66176;BME280;52977;44.816;20.538;2024-03-29T01:27:34;99211.63;;;16.36;55.46
66176;BME280;52977;44.816;20.538;2024-03-29T01:30:00;99215.59;;;16.39;55.41
66176;BME280;52977;44.816;20.538;2024-03-29T01:32:27;99216.03;;;16.41;55.13
66176;BME280;52977;44.816;20.538;2024-03-29T01:34:54;99232.56;;;16.41;55.20
66176;BME280;52977;44.816;20.538;2024-03-29T01:37:20;99226.59;;;16.35;55.21
66176;BME280;52977;44.816;20.538;2024-03-29T01:39:47;99234.47;;;16.37;55.13
66176;BME280;52977;44.816;20.538;2024-03-29T01:42:13;99240.66;;;16.30;55.46
66176;BME280;52977;44.816;20.538;2024-03-29T01:44:40;99250.94;;;16.33;55.47
66176;BME280;52977;44.816;20.538;2024-03-29T01:47:06;99255.75;;;16.40;55.03
66176;BME280;52977;44.816;20.538;2024-03-29T01:49:33;99257.66;;;16.36;55.39
66176;BME280;52977;44.816;20.538;2024-03-29T01:52:01;99256.81;;;16.32;55.36
66176;BME280;52977;44.816;20.538;2024-03-29T01:54:29;99264.31;;;16.35;55.12
66176;BME280;52977;44.816;20.538;2024-03-29T01:56:55;99263.84;;;16.29;55.96
66176;BME280;52977;44.816;20.538;2024-03-29T01:59:22;99271.84;;;16.38;55.47
66176;BME280;52977;44.816;20.538;2024-03-29T02:01:49;99270.59;;;16.32;55.91
66176;BME280;52977;44.816;20.538;2024-03-29T02:04:15;99275.31;;;16.31;55.78
66176;BME280;52977;44.816;20.538;2024-03-29T02:06:42;99283.56;;;16.31;55.67
66176;BME280;52977;44.816;20.538;2024-03-29T02:09:08;99287.09;;;16.32;55.85
66176;BME280;52977;44.816;20.538;2024-03-29T02:11:35;99287.09;;;16.32;55.83
66176;BME280;52977;44.816;20.538;2024-03-29T02:14:03;99291.88;;;16.35;56.17
66176;BME280;52977;44.816;20.538;2024-03-29T02:16:32;99293.41;;;16.32;56.14
66176;BME280;52977;44.816;20.538;2024-03-29T02:18:58;99299.72;;;16.33;56.10
66176;BME280;52977;44.816;20.538;2024-03-29T02:21:25;99305.22;;;16.33;56.06
66176;BME280;52977;44.816;20.538;2024-03-29T02:24:01;99313.88;;;16.31;56.11
66176;BME280;52977;44.816;20.538;2024-03-29T02:26:28;99322.47;;;16.30;56.10
66176;BME280;52977;44.816;20.538;2024-03-29T02:28:57;99319.78;;;16.33;56.20
66176;BME280;52977;44.816;20.538;2024-03-29T02:31:24;99319.97;;;16.44;55.99
66176;BME280;52977;44.816;20.538;2024-03-29T02:33:51;99365.28;;;16.50;55.99
66176;BME280;52977;44.816;20.538;2024-03-29T02:36:17;99424.63;;;16.21;57.57
66176;BME280;52977;44.816;20.538;2024-03-29T02:38:44;99427.03;;;15.80;59.99
66176;BME280;52977;44.816;20.538;2024-03-29T02:41:10;99424.94;;;15.53;60.21
66176;BME280;52977;44.816;20.538;2024-03-29T02:43:37;99436.34;;;15.55;60.60
66176;BME280;52977;44.816;20.538;2024-03-29T02:46:03;99454.25;;;15.85;59.40
66176;BME280;52977;44.816;20.538;2024-03-29T02:48:30;99470.88;;;15.72;60.76
66176;BME280;52977;44.816;20.538;2024-03-29T02:50:56;99479.56;;;15.55;61.96
66176;BME280;52977;44.816;20.538;2024-03-29T02:53:23;99483.06;;;15.52;61.91
66176;BME280;52977;44.816;20.538;2024-03-29T02:55:49;99498.44;;;15.37;63.41
66176;BME280;52977;44.816;20.538;2024-03-29T02:58:16;99520.69;;;14.80;67.61
66176;BME280;52977;44.816;20.538;2024-03-29T03:00:42;99529.09;;;14.11;71.63
66176;BME280;52977;44.816;20.538;2024-03-29T03:03:09;99547.75;;;13.77;74.62
66176;BME280;52977;44.816;20.538;2024-03-29T03:05:35;99544.91;;;13.61;76.08
66176;BME280;52977;44.816;20.538;2024-03-29T03:08:02;99567.56;;;13.33;76.88
66176;BME280;52977;44.816;20.538;2024-03-29T03:10:47;99567.53;;;13.09;77.17
66176;BME280;52977;44.816;20.538;2024-03-29T03:13:22;99572.81;;;13.02;77.39
66176;BME280;52977;44.816;20.538;2024-03-29T03:15:49;99576.00;;;13.04;77.62
66176;BME280;52977;44.816;20.538;2024-03-29T03:18:15;99590.03;;;12.77;77.21
66176;BME280;52977;44.816;20.538;2024-03-29T03:20:42;99587.91;;;12.50;78.63
66176;BME280;52977;44.816;20.538;2024-03-29T03:23:08;99578.34;;;12.68;77.56
66176;BME280;52977;44.816;20.538;2024-03-29T03:25:35;99579.34;;;12.18;80.62
66176;BME280;52977;44.816;20.538;2024-03-29T03:28:01;99582.34;;;12.04;81.45
66176;BME280;52977;44.816;20.538;2024-03-29T03:30:27;99592.63;;;12.28;80.87
66176;BME280;52977;44.816;20.538;2024-03-29T03:32:54;99598.41;;;12.47;79.49
66176;BME280;52977;44.816;20.538;2024-03-29T03:35:20;99599.53;;;12.46;79.59
66176;BME280;52977;44.816;20.538;2024-03-29T03:37:47;99605.34;;;12.45;80.11
66176;BME280;52977;44.816;20.538;2024-03-29T03:40:13;99606.97;;;12.58;79.03
66176;BME280;52977;44.816;20.538;2024-03-29T03:42:40;99610.94;;;12.48;79.40
66176;BME280;52977;44.816;20.538;2024-03-29T03:45:07;99607.75;;;12.46;80.10
66176;BME280;52977;44.816;20.538;2024-03-29T03:47:33;99599.97;;;12.48;79.44
66176;BME280;52977;44.816;20.538;2024-03-29T03:50:00;99608.81;;;12.67;78.60
66176;BME280;52977;44.816;20.538;2024-03-29T03:52:26;99613.94;;;12.68;78.43
66176;BME280;52977;44.816;20.538;2024-03-29T03:54:53;99622.63;;;12.70;77.99
66176;BME280;52977;44.816;20.538;2024-03-29T03:57:19;99619.09;;;12.70;78.27
66176;BME280;52977;44.816;20.538;2024-03-29T03:59:45;99628.72;;;12.42;80.33
66176;BME280;52977;44.816;20.538;2024-03-29T04:02:11;99627.47;;;12.86;77.88
66176;BME280;52977;44.816;20.538;2024-03-29T04:04:38;99634.09;;;12.97;77.15
66176;BME280;52977;44.816;20.538;2024-03-29T04:07:04;99615.66;;;12.60;78.23
66176;BME280;52977;44.816;20.538;2024-03-29T04:09:31;99616.97;;;12.88;77.21
66176;BME280;52977;44.816;20.538;2024-03-29T04:11:57;99615.97;;;12.92;76.21
66176;BME280;52977;44.816;20.538;2024-03-29T04:14:24;99625.56;;;13.11;75.32
66176;BME280;52977;44.816;20.538;2024-03-29T04:16:50;99621.81;;;13.28;75.13
66176;BME280;52977;44.816;20.538;2024-03-29T04:19:17;99625.22;;;13.00;75.49
66176;BME280;52977;44.816;20.538;2024-03-29T04:21:43;99625.88;;;12.85;75.96
66176;BME280;52977;44.816;20.538;2024-03-29T04:24:10;99625.22;;;13.00;75.92
66176;BME280;52977;44.816;20.538;2024-03-29T04:26:36;99625.38;;;12.70;77.20
66176;BME280;52977;44.816;20.538;2024-03-29T04:29:05;99622.00;;;12.86;76.23
66176;BME280;52977;44.816;20.538;2024-03-29T04:31:31;99633.28;;;12.84;76.45
66176;BME280;52977;44.816;20.538;2024-03-29T04:33:57;99632.00;;;12.69;77.33
66176;BME280;52977;44.816;20.538;2024-03-29T04:36:24;99623.72;;;12.23;79.55
66176;BME280;52977;44.816;20.538;2024-03-29T04:38:51;99628.53;;;12.60;79.06
66176;BME280;52977;44.816;20.538;2024-03-29T04:41:17;99627.41;;;12.61;78.07
66176;BME280;52977;44.816;20.538;2024-03-29T04:43:44;99628.72;;;12.42;78.66
66176;BME280;52977;44.816;20.538;2024-03-29T04:46:12;99633.16;;;12.47;79.16
66176;BME280;52977;44.816;20.538;2024-03-29T04:48:40;99628.75;;;13.01;77.13
66176;BME280;52977;44.816;20.538;2024-03-29T04:51:26;99639.16;;;12.95;76.49
66176;BME280;52977;44.816;20.538;2024-03-29T04:53:52;99638.81;;;12.63;77.40
66176;BME280;52977;44.816;20.538;2024-03-29T04:56:19;99624.78;;;13.10;76.12
66176;BME280;52977;44.816;20.538;2024-03-29T04:58:46;99636.00;;;13.42;74.00
66176;BME280;52977;44.816;20.538;2024-03-29T05:01:12;99648.41;;;13.15;72.93
66176;BME280;52977;44.816;20.538;2024-03-29T05:03:39;99649.78;;;12.63;75.06
66176;BME280;52977;44.816;20.538;2024-03-29T05:06:05;99650.50;;;12.85;74.70
66176;BME280;52977;44.816;20.538;2024-03-29T05:08:32;99657.44;;;13.28;73.27
66176;BME280;52977;44.816;20.538;2024-03-29T05:10:58;99654.41;;;13.54;72.42
66176;BME280;52977;44.816;20.538;2024-03-29T05:13:25;99658.16;;;13.74;72.26
66176;BME280;52977;44.816;20.538;2024-03-29T05:15:51;99658.34;;;13.20;75.24
66176;BME280;52977;44.816;20.538;2024-03-29T05:18:18;99654.75;;;13.53;74.41
66176;BME280;52977;44.816;20.538;2024-03-29T05:20:45;99662.84;;;13.74;73.36
66176;BME280;52977;44.816;20.538;2024-03-29T05:23:15;99663.63;;;13.87;72.74
66176;BME280;52977;44.816;20.538;2024-03-29T05:25:42;99663.97;;;13.85;72.81
66176;BME280;52977;44.816;20.538;2024-03-29T05:28:09;99663.53;;;13.95;72.44
66176;BME280;52977;44.816;20.538;2024-03-29T05:30:36;99660.53;;;14.00;71.75
66176;BME280;52977;44.816;20.538;2024-03-29T05:33:04;99655.25;;;14.08;71.22
66176;BME280;52977;44.816;20.538;2024-03-29T05:35:30;99653.66;;;13.32;74.23
66176;BME280;52977;44.816;20.538;2024-03-29T05:37:57;99661.81;;;13.66;73.89
66176;BME280;52977;44.816;20.538;2024-03-29T05:40:24;99667.50;;;13.85;72.58
66176;BME280;52977;44.816;20.538;2024-03-29T05:42:54;99657.81;;;13.76;72.23
66176;BME280;52977;44.816;20.538;2024-03-29T05:45:26;99659.19;;;13.57;73.82
66176;BME280;52977;44.816;20.538;2024-03-29T05:47:58;99655.06;;;13.76;72.97
66176;BME280;52977;44.816;20.538;2024-03-29T05:50:25;99664.81;;;13.48;74.30
66176;BME280;52977;44.816;20.538;2024-03-29T05:52:52;99648.34;;;13.61;74.49
66176;BME280;52977;44.816;20.538;2024-03-29T05:55:18;99652.91;;;13.81;73.47
66176;BME280;52977;44.816;20.538;2024-03-29T05:57:45;99661.66;;;13.99;72.54
66176;BME280;52977;44.816;20.538;2024-03-29T06:00:12;99648.59;;;14.09;71.45
66176;BME280;52977;44.816;20.538;2024-03-29T06:02:43;99650.78;;;14.15;71.66
66176;BME280;52977;44.816;20.538;2024-03-29T06:05:11;99662.53;;;14.16;71.41
66176;BME280;52977;44.816;20.538;2024-03-29T06:07:38;99652.47;;;14.20;71.41
66176;BME280;52977;44.816;20.538;2024-03-29T06:10:04;99661.25;;;14.26;71.18
66176;BME280;52977;44.816;20.538;2024-03-29T06:12:32;99660.56;;;14.29;70.82
66176;BME280;52977;44.816;20.538;2024-03-29T06:14:59;99654.94;;;14.38;70.42
66176;BME280;52977;44.816;20.538;2024-03-29T06:17:44;99649.09;;;14.39;70.71
66176;BME280;52977;44.816;20.538;2024-03-29T06:20:12;99649.19;;;14.43;70.32
66176;BME280;52977;44.816;20.538;2024-03-29T06:22:39;99645.41;;;14.47;70.11
66176;BME280;52977;44.816;20.538;2024-03-29T06:25:06;99646.53;;;14.46;70.63
66176;BME280;52977;44.816;20.538;2024-03-29T06:27:33;99650.63;;;14.52;70.56
66176;BME280;52977;44.816;20.538;2024-03-29T06:29:59;99664.19;;;14.33;71.18
66176;BME280;52977;44.816;20.538;2024-03-29T06:32:25;99663.38;;;14.04;72.12
66176;BME280;52977;44.816;20.538;2024-03-29T06:34:51;99663.84;;;13.94;73.39
66176;BME280;52977;44.816;20.538;2024-03-29T06:37:18;99668.88;;;13.92;73.47
66176;BME280;52977;44.816;20.538;2024-03-29T06:39:47;99663.59;;;13.99;73.43
66176;BME280;52977;44.816;20.538;2024-03-29T06:42:14;99662.50;;;14.28;72.25
66176;BME280;52977;44.816;20.538;2024-03-29T06:44:40;99671.09;;;14.27;72.29
66176;BME280;52977;44.816;20.538;2024-03-29T06:47:07;99658.38;;;14.34;71.97
66176;BME280;52977;44.816;20.538;2024-03-29T06:49:33;99662.44;;;14.53;71.44
66176;BME280;52977;44.816;20.538;2024-03-29T06:52:00;99664.81;;;14.67;71.09
66176;BME280;52977;44.816;20.538;2024-03-29T06:54:27;99670.59;;;14.78;70.86
66176;BME280;52977;44.816;20.538;2024-03-29T06:56:55;99682.06;;;14.67;71.67
66176;BME280;52977;44.816;20.538;2024-03-29T06:59:23;99686.78;;;14.67;71.95
66176;BME280;52977;44.816;20.538;2024-03-29T07:01:50;99686.19;;;14.74;71.56
66176;BME280;52977;44.816;20.538;2024-03-29T07:04:22;99683.16;;;14.79;71.62
66176;BME280;52977;44.816;20.538;2024-03-29T07:06:53;99693.88;;;14.68;72.27
66176;BME280;52977;44.816;20.538;2024-03-29T07:09:20;99700.59;;;14.70;71.96
66176;BME280;52977;44.816;20.538;2024-03-29T07:11:48;99690.81;;;14.85;71.75
66176;BME280;52977;44.816;20.538;2024-03-29T07:14:15;99698.28;;;15.01;71.43
66176;BME280;52977;44.816;20.538;2024-03-29T07:16:43;99692.44;;;15.02;72.00
66176;BME280;52977;44.816;20.538;2024-03-29T07:19:10;99695.28;;;15.06;71.63
66176;BME280;52977;44.816;20.538;2024-03-29T07:21:45;99698.22;;;15.13;71.74
66176;BME280;52977;44.816;20.538;2024-03-29T07:24:12;99703.19;;;15.08;72.89
66176;BME280;52977;44.816;20.538;2024-03-29T07:26:39;99697.88;;;15.15;72.84
66176;BME280;52977;44.816;20.538;2024-03-29T07:29:06;99698.84;;;15.23;71.98
66176;BME280;52977;44.816;20.538;2024-03-29T07:31:33;99688.75;;;15.27;71.73
66176;BME280;52977;44.816;20.538;2024-03-29T07:34:00;99695.31;;;15.38;71.75
66176;BME280;52977;44.816;20.538;2024-03-29T07:36:27;99698.25;;;15.45;71.16
66176;BME280;52977;44.816;20.538;2024-03-29T07:39:00;99691.84;;;15.41;72.43
66176;BME280;52977;44.816;20.538;2024-03-29T07:41:26;99689.53;;;15.43;72.33
66176;BME280;52977;44.816;20.538;2024-03-29T07:43:56;99691.22;;;15.48;71.35
66176;BME280;52977;44.816;20.538;2024-03-29T07:46:27;99692.19;;;15.55;71.29
66176;BME280;52977;44.816;20.538;2024-03-29T07:48:55;99699.66;;;15.55;71.14
66176;BME280;52977;44.816;20.538;2024-03-29T07:51:22;99699.47;;;15.64;71.33
66176;BME280;52977;44.816;20.538;2024-03-29T07:53:49;99693.69;;;15.69;70.83
66176;BME280;52977;44.816;20.538;2024-03-29T07:56:14;99691.91;;;15.77;70.45
66176;BME280;52977;44.816;20.538;2024-03-29T07:58:41;99703.81;;;15.81;70.18
66176;BME280;52977;44.816;20.538;2024-03-29T08:01:06;99701.59;;;15.86;70.24
66176;BME280;52977;44.816;20.538;2024-03-29T08:03:33;99696.28;;;15.94;70.18
66176;BME280;52977;44.816;20.538;2024-03-29T08:06:01;99697.06;;;15.78;71.61
66176;BME280;52977;44.816;20.538;2024-03-29T08:08:31;99694.16;;;15.87;70.96
66176;BME280;52977;44.816;20.538;2024-03-29T08:10:58;99699.03;;;15.94;70.43
66176;BME280;52977;44.816;20.538;2024-03-29T08:13:25;99703.19;;;16.03;70.25
66176;BME280;52977;44.816;20.538;2024-03-29T08:16:01;99713.09;;;16.08;69.69
66176;BME280;52977;44.816;20.538;2024-03-29T08:18:30;99707.31;;;16.13;69.74
66176;BME280;52977;44.816;20.538;2024-03-29T08:20:56;99707.03;;;16.18;69.37
66176;BME280;52977;44.816;20.538;2024-03-29T08:23:27;99708.72;;;16.23;69.09
66176;BME280;52977;44.816;20.538;2024-03-29T08:25:53;99714.00;;;16.32;69.40
66176;BME280;52977;44.816;20.538;2024-03-29T08:28:22;99721.69;;;16.42;69.52
66176;BME280;52977;44.816;20.538;2024-03-29T08:30:59;99728.44;;;16.45;69.18
66176;BME280;52977;44.816;20.538;2024-03-29T08:33:25;99725.28;;;16.62;70.23
66176;BME280;52977;44.816;20.538;2024-03-29T08:35:52;99721.50;;;16.70;69.34
66176;BME280;52977;44.816;20.538;2024-03-29T08:38:18;99725.47;;;16.73;69.11
66176;BME280;52977;44.816;20.538;2024-03-29T08:40:45;99720.84;;;16.77;68.66
66176;BME280;52977;44.816;20.538;2024-03-29T08:43:14;99716.19;;;16.81;68.74
66176;BME280;52977;44.816;20.538;2024-03-29T08:45:42;99724.66;;;16.88;68.32
66176;BME280;52977;44.816;20.538;2024-03-29T08:48:09;99727.09;;;16.94;68.81
66176;BME280;52977;44.816;20.538;2024-03-29T08:50:36;99738.25;;;17.01;68.96
66176;BME280;52977;44.816;20.538;2024-03-29T08:53:04;99735.50;;;17.01;70.22
66176;BME280;52977;44.816;20.538;2024-03-29T08:55:31;99733.97;;;17.03;69.05
66176;BME280;52977;44.816;20.538;2024-03-29T08:57:58;99731.72;;;17.09;68.96
66176;BME280;52977;44.816;20.538;2024-03-29T09:00:27;99727.88;;;17.14;67.86
66176;BME280;52977;44.816;20.538;2024-03-29T09:02:54;99731.91;;;17.20;67.50
66176;BME280;52977;44.816;20.538;2024-03-29T09:05:20;99729.22;;;17.23;67.58
66176;BME280;52977;44.816;20.538;2024-03-29T09:07:49;99723.75;;;17.27;67.65
66176;BME280;52977;44.816;20.538;2024-03-29T09:10:16;99734.59;;;17.36;67.30
66176;BME280;52977;44.816;20.538;2024-03-29T09:12:41;99730.81;;;17.48;66.54
66176;BME280;52977;44.816;20.538;2024-03-29T09:15:07;99740.88;;;17.59;65.54
66176;BME280;52977;44.816;20.538;2024-03-29T09:17:39;99742.16;;;17.66;64.91
66176;BME280;52977;44.816;20.538;2024-03-29T09:20:07;99735.59;;;17.74;63.73
66176;BME280;52977;44.816;20.538;2024-03-29T09:22:34;99725.03;;;17.80;64.71
66176;BME280;52977;44.816;20.538;2024-03-29T09:25:01;99724.28;;;17.83;64.00
66176;BME280;52977;44.816;20.538;2024-03-29T09:27:27;99726.69;;;17.84;63.76
66176;BME280;52977;44.816;20.538;2024-03-29T09:29:57;99727.53;;;17.88;63.86
66176;BME280;52977;44.816;20.538;2024-03-29T09:32:23;99730.06;;;17.97;63.24
66176;BME280;52977;44.816;20.538;2024-03-29T09:34:50;99717.94;;;18.05;62.64
66176;BME280;52977;44.816;20.538;2024-03-29T09:37:17;99712.09;;;18.10;62.22
66176;BME280;52977;44.816;20.538;2024-03-29T09:39:46;99716.88;;;18.14;61.37
66176;BME280;52977;44.816;20.538;2024-03-29T09:42:15;99710.97;;;18.15;61.51
66176;BME280;52977;44.816;20.538;2024-03-29T09:44:44;99707.91;;;18.20;61.17
66176;BME280;52977;44.816;20.538;2024-03-29T09:47:15;99700.88;;;18.26;61.55
66176;BME280;52977;44.816;20.538;2024-03-29T09:49:44;99695.41;;;18.30;61.23
66176;BME280;52977;44.816;20.538;2024-03-29T09:52:12;99696.25;;;18.34;60.88
66176;BME280;52977;44.816;20.538;2024-03-29T09:54:39;99699.53;;;18.43;60.37
66176;BME280;52977;44.816;20.538;2024-03-29T09:57:06;99703.94;;;18.48;59.57
66176;BME280;52977;44.816;20.538;2024-03-29T09:59:32;99713.06;;;18.52;58.59
66176;BME280;52977;44.816;20.538;2024-03-29T10:02:00;99704.06;;;18.59;58.10
66176;BME280;52977;44.816;20.538;2024-03-29T10:04:32;99704.47;;;18.61;57.60
66176;BME280;52977;44.816;20.538;2024-03-29T10:06:58;99707.63;;;18.59;57.93
66176;BME280;52977;44.816;20.538;2024-03-29T10:09:25;99699.41;;;18.67;57.73
66176;BME280;52977;44.816;20.538;2024-03-29T10:11:55;99702.00;;;18.86;56.65
66176;BME280;52977;44.816;20.538;2024-03-29T10:14:22;99703.31;;;18.96;56.41
66176;BME280;52977;44.816;20.538;2024-03-29T10:16:53;99702.72;;;19.13;55.97
66176;BME280;52977;44.816;20.538;2024-03-29T10:19:20;99705.59;;;19.24;54.70
66176;BME280;52977;44.816;20.538;2024-03-29T10:21:48;99702.09;;;19.35;54.58
66176;BME280;52977;44.816;20.538;2024-03-29T10:24:16;99696.97;;;19.37;53.44
66176;BME280;52977;44.816;20.538;2024-03-29T10:26:46;99705.75;;;19.46;53.42
66176;BME280;52977;44.816;20.538;2024-03-29T10:29:13;99702.66;;;19.55;53.09
66176;BME280;52977;44.816;20.538;2024-03-29T10:31:40;99707.91;;;19.63;53.24
66176;BME280;52977;44.816;20.538;2024-03-29T10:34:07;99699.22;;;19.69;52.88
66176;BME280;52977;44.816;20.538;2024-03-29T10:36:35;99696.47;;;19.72;52.94
66176;BME280;52977;44.816;20.538;2024-03-29T10:39:02;99702.03;;;19.72;52.80
66176;BME280;52977;44.816;20.538;2024-03-29T10:41:41;99697.25;;;19.73;51.96
66176;BME280;52977;44.816;20.538;2024-03-29T10:44:11;99695.66;;;19.68;51.72
66176;BME280;52977;44.816;20.538;2024-03-29T10:46:39;99692.53;;;19.73;51.26
66176;BME280;52977;44.816;20.538;2024-03-29T10:49:09;99684.66;;;19.79;51.62
66176;BME280;52977;44.816;20.538;2024-03-29T10:51:38;99689.38;;;19.78;51.87
66176;BME280;52977;44.816;20.538;2024-03-29T10:54:08;99687.91;;;19.88;50.10
66176;BME280;52977;44.816;20.538;2024-03-29T10:56:35;99680.78;;;19.87;52.03
66176;BME280;52977;44.816;20.538;2024-03-29T10:59:29;99682.44;;;19.95;51.74
66176;BME280;52977;44.816;20.538;2024-03-29T11:02:00;99693.16;;;20.04;51.52
66176;BME280;52977;44.816;20.538;2024-03-29T11:04:32;99682.09;;;20.08;51.56
66176;BME280;52977;44.816;20.538;2024-03-29T11:07:02;99682.84;;;20.01;50.22
66176;BME280;52977;44.816;20.538;2024-03-29T11:09:31;99680.47;;;20.00;49.78
66176;BME280;52977;44.816;20.538;2024-03-29T11:12:01;99672.91;;;19.93;48.94
66176;BME280;52977;44.816;20.538;2024-03-29T11:14:42;99672.88;;;19.89;49.47
66176;BME280;52977;44.816;20.538;2024-03-29T11:17:13;99664.22;;;19.94;49.58
66176;BME280;52977;44.816;20.538;2024-03-29T11:19:41;99658.72;;;20.02;49.51
66176;BME280;52977;44.816;20.538;2024-03-29T11:22:08;99654.03;;;20.09;48.12
66176;BME280;52977;44.816;20.538;2024-03-29T11:24:34;99655.19;;;20.08;49.86
66176;BME280;52977;44.816;20.538;2024-03-29T11:27:11;99657.63;;;20.21;49.92
66176;BME280;52977;44.816;20.538;2024-03-29T11:29:41;99657.28;;;20.37;48.13
66176;BME280;52977;44.816;20.538;2024-03-29T11:32:09;99650.97;;;20.47;48.46
66176;BME280;52977;44.816;20.538;2024-03-29T11:34:43;99653.00;;;20.57;48.36
66176;BME280;52977;44.816;20.538;2024-03-29T11:37:12;99653.50;;;20.74;46.75
66176;BME280;52977;44.816;20.538;2024-03-29T11:40:01;99643.94;;;20.64;46.37
66176;BME280;52977;44.816;20.538;2024-03-29T11:42:38;99650.31;;;20.68;46.29
66176;BME280;52977;44.816;20.538;2024-03-29T11:45:05;99647.53;;;20.75;46.22
66176;BME280;52977;44.816;20.538;2024-03-29T11:47:34;99655.84;;;20.72;46.42
66176;BME280;52977;44.816;20.538;2024-03-29T11:50:01;99651.09;;;20.69;46.38
66176;BME280;52977;44.816;20.538;2024-03-29T11:52:27;99640.38;;;20.71;46.14
66176;BME280;52977;44.816;20.538;2024-03-29T11:54:54;99625.38;;;20.75;46.40
66176;BME280;52977;44.816;20.538;2024-03-29T11:57:20;99625.38;;;20.86;45.82
66176;BME280;52977;44.816;20.538;2024-03-29T11:59:45;99630.16;;;20.96;44.86
66176;BME280;52977;44.816;20.538;2024-03-29T12:02:13;99627.00;;;21.02;44.84
66176;BME280;52977;44.816;20.538;2024-03-29T12:04:41;99627.34;;;21.00;45.03
66176;BME280;52977;44.816;20.538;2024-03-29T12:07:08;99615.09;;;20.97;44.29
66176;BME280;52977;44.816;20.538;2024-03-29T12:09:35;99611.50;;;20.90;44.78
66176;BME280;52977;44.816;20.538;2024-03-29T12:12:06;99613.88;;;20.98;44.77
66176;BME280;52977;44.816;20.538;2024-03-29T12:14:35;99600.41;;;21.00;44.45
66176;BME280;52977;44.816;20.538;2024-03-29T12:17:12;99603.19;;;21.15;43.87
66176;BME280;52977;44.816;20.538;2024-03-29T12:19:38;99605.16;;;21.29;43.42
66176;BME280;52977;44.816;20.538;2024-03-29T12:22:08;99604.75;;;21.38;43.25
66176;BME280;52977;44.816;20.538;2024-03-29T12:24:36;99594.84;;;21.33;44.15
66176;BME280;52977;44.816;20.538;2024-03-29T12:27:02;99604.78;;;21.12;44.57
66176;BME280;52977;44.816;20.538;2024-03-29T12:29:28;99604.38;;;20.99;44.65
66176;BME280;52977;44.816;20.538;2024-03-29T12:32:01;99595.66;;;21.12;44.61
66176;BME280;52977;44.816;20.538;2024-03-29T12:34:28;99590.91;;;21.23;42.44
66176;BME280;52977;44.816;20.538;2024-03-29T12:36:58;99587.75;;;21.10;42.88
66176;BME280;52977;44.816;20.538;2024-03-29T12:39:25;99578.63;;;21.06;43.24
66176;BME280;52977;44.816;20.538;2024-03-29T12:41:53;99579.41;;;21.10;43.24
66176;BME280;52977;44.816;20.538;2024-03-29T12:44:22;99582.19;;;21.21;43.40
66176;BME280;52977;44.816;20.538;2024-03-29T12:46:49;99570.31;;;21.17;43.55
66176;BME280;52977;44.816;20.538;2024-03-29T12:49:16;99572.66;;;21.15;44.47
66176;BME280;52977;44.816;20.538;2024-03-29T12:51:44;99575.03;;;21.16;44.87
66176;BME280;52977;44.816;20.538;2024-03-29T12:54:10;99568.72;;;21.20;45.23